Terminal Aerodrome Forecast
Issued by NWS Sterling, VA

Current Version | Previous Version | Graphics & Text | Print | Product List | Glossary On
Versions: 1 2 3 4 5 6 7 8 9 10 11 12 13 14 15 16 17 18 19 20 21 22
541
FTUS41 KLWX 062100 AAB
TAFIAD
TAF AMD
KIAD 062100Z 0621/0724 35007KT 1 1/2SM RA OVC006
     FM070300 34005KT 5SM BR OVC008
     FM071200 32006KT P6SM BKN050
     FM071800 32010G16KT P6SM FEW200
     FM072300 34005KT P6SM FEW200=

USA.gov is the U.S. government's official web portal to all federal, state and local government web resources and services.